Time;durP1;ratioP1;P1;durP2;ratioP2;P2;SDS_P1;SDS_P2;PMS_P1;PMS_P2;Temp;Humidity;BMP_temperature;BMP_pressure;BME280_temperature;BME280_humidity;BME280_pressure;Samples;Min_cycle;Max_cycle;Signal;HPM_P1;HPM_P2
2022/10/31 00:00:19;;;;;;;;;10.00;9.75;;;;;16.62;77.21;100371.22;5034943;28;46353;-70
2022/10/31 00:02:44;;;;;;;;;10.33;9.33;;;;;16.72;77.18;100390.59;5035078;28;45563;-70
2022/10/31 00:05:10;;;;;;;;;8.33;8.00;;;;;16.57;77.35;100378.22;5034925;28;45730;-70
2022/10/31 00:07:35;;;;;;;;;10.33;10.00;;;;;16.65;77.19;100392.31;5034844;28;45556;-71
2022/10/31 00:10:01;;;;;;;;;9.00;8.67;;;;;16.46;77.18;100363.25;5034594;28;45398;-71
2022/10/31 00:12:26;;;;;;;;;10.00;9.25;;;;;16.52;76.87;100370.31;5036423;28;45530;-70
2022/10/31 00:14:52;;;;;;;;;11.00;10.00;;;;;16.51;76.82;100371.16;5038928;28;45445;-70
2022/10/31 00:17:17;;;;;;;;;9.00;9.00;;;;;16.46;76.59;100359.75;5039182;28;46452;-70
2022/10/31 00:19:43;;;;;;;;;9.25;9.25;;;;;16.47;76.87;100365.03;5054485;28;45509;-70
2022/10/31 00:22:08;;;;;;;;;9.75;8.50;;;;;16.28;76.72;100336.84;5039394;28;45472;-70
2022/10/31 00:24:34;;;;;;;;;11.00;11.00;;;;;16.39;76.86;100357.94;5040395;28;45500;-70
2022/10/31 00:26:59;;;;;;;;;11.50;10.75;;;;;16.25;77.98;100350.00;5039376;28;46243;-70
2022/10/31 00:29:25;;;;;;;;;10.25;10.25;;;;;16.33;77.89;100361.44;5038145;28;45473;-70
2022/10/31 00:31:52;;;;;;;;;11.00;10.25;;;;;16.18;77.89;100357.00;5039733;28;45448;-71
2022/10/31 00:34:17;;;;;;;;;9.50;9.00;;;;;15.86;78.06;100318.22;5039745;28;45509;-71
2022/10/31 00:36:43;;;;;;;;;9.00;8.33;;;;;16.03;77.58;100357.81;5038123;28;45530;-71
2022/10/31 00:39:08;;;;;;;;;10.00;9.67;;;;;16.01;78.13;100343.75;5039234;28;45350;-70
2022/10/31 00:41:35;;;;;;;;;9.00;8.75;;;;;15.83;77.95;100322.59;5038929;28;45553;-70
2022/10/31 00:44:01;;;;;;;;;13.00;11.25;;;;;16.02;78.58;100349.94;5039694;28;45480;-70
2022/10/31 00:46:26;;;;;;;;;9.00;8.33;;;;;15.97;77.87;100341.09;5054858;28;45494;-70
2022/10/31 00:48:52;;;;;;;;;10.00;9.75;;;;;15.81;77.64;100314.69;5039502;28;45265;-70
2022/10/31 00:51:18;;;;;;;;;10.75;10.25;;;;;15.88;77.86;100328.78;5037316;28;45383;-70
2022/10/31 00:53:43;;;;;;;;;8.00;8.00;;;;;15.79;78.09;100307.66;5039266;28;45453;-70
2022/10/31 00:56:09;;;;;;;;;10.00;10.00;;;;;15.82;77.48;100305.06;5036694;28;45416;-71
2022/10/31 00:58:34;;;;;;;;;12.00;11.25;;;;;15.85;77.17;100311.19;5039436;28;45357;-70
2022/10/31 01:01:00;;;;;;;;;10.00;9.50;;;;;15.82;77.50;100308.56;5038342;28;45595;-70
2022/10/31 01:03:28;;;;;;;;;10.33;9.00;;;;;15.80;77.67;100309.44;5038222;28;45417;-70
2022/10/31 01:06:03;;;;;;;;;13.00;11.50;;;;;15.80;77.97;100312.94;5038639;28;45547;-70
2022/10/31 01:08:29;;;;;;;;;10.75;9.75;;;;;15.68;78.75;100286.50;5038495;28;45500;-70
2022/10/31 01:11:14;;;;;;;;;12.00;12.00;;;;;15.72;78.67;100296.19;5039085;28;45429;-70
2022/10/31 01:13:40;;;;;;;;;9.75;9.75;;;;;15.68;78.19;100292.66;5037707;28;45537;-70
2022/10/31 01:16:07;;;;;;;;;11.75;11.00;;;;;15.68;77.90;100299.69;5036925;28;45487;-70
2022/10/31 01:18:34;;;;;;;;;11.50;10.75;;;;;15.67;77.83;100301.41;5037430;28;45360;-70
2022/10/31 01:21:06;;;;;;;;;11.00;9.75;;;;;15.51;78.48;100284.66;5038838;28;45503;-70
2022/10/31 01:23:32;;;;;;;;;14.50;13.00;;;;;15.54;78.16;100294.34;5038254;28;45580;-70
2022/10/31 01:26:10;;;;;;;;;13.25;12.25;;;;;15.37;78.28;100273.16;5038132;28;46379;-70
2022/10/31 01:28:38;;;;;;;;;13.50;13.50;;;;;15.42;78.53;100304.78;5037933;28;45448;-70
2022/10/31 01:31:07;;;;;;;;;12.00;11.75;;;;;15.35;78.59;100292.47;5038202;28;45572;-70
2022/10/31 01:33:32;;;;;;;;;13.00;11.75;;;;;15.29;79.14;100286.28;5038438;28;45641;-70
2022/10/31 01:35:58;;;;;;;;;14.75;14.00;;;;;15.19;79.18;100273.06;5036348;28;45645;-70
2022/10/31 01:38:24;;;;;;;;;13.50;11.50;;;;;15.31;79.22;100281.03;5037630;28;45354;-70
2022/10/31 01:40:50;;;;;;;;;13.00;12.00;;;;;15.34;79.80;100288.06;5038317;28;45461;-70
2022/10/31 01:43:15;;;;;;;;;17.25;17.25;;;;;15.30;79.79;100289.81;5038145;28;45541;-70
2022/10/31 01:45:51;;;;;;;;;14.50;14.00;;;;;15.20;79.02;100283.59;5038480;28;45412;-70
2022/10/31 01:48:21;;;;;;;;;15.00;14.50;;;;;15.29;79.13;100288.03;5037110;28;45328;-70
2022/10/31 01:50:53;;;;;;;;;15.75;15.00;;;;;15.28;78.91;100287.16;5038328;28;45589;-70
2022/10/31 01:53:20;;;;;;;;;16.00;14.75;;;;;15.29;78.84;100288.03;5037694;28;45575;-70
2022/10/31 01:55:47;;;;;;;;;17.25;17.00;;;;;15.25;78.96;100265.19;5037518;28;46173;-70
2022/10/31 01:58:17;;;;;;;;;18.25;18.25;;;;;15.29;78.51;100286.28;5035935;28;45530;-70
2022/10/31 02:00:46;;;;;;;;;20.75;19.75;;;;;15.20;79.05;100267.81;5037888;28;45531;-71
2022/10/31 02:03:12;;;;;;;;;15.25;14.50;;;;;15.25;79.23;100265.19;5038160;28;45346;-71
2022/10/31 02:05:38;;;;;;;;;17.50;15.75;;;;;15.20;78.97;100246.75;5038189;28;45452;-70
2022/10/31 02:08:14;;;;;;;;;19.25;18.00;;;;;15.21;78.93;100255.53;5037941;28;45477;-70
2022/10/31 02:10:40;;;;;;;;;20.00;18.00;;;;;15.11;79.12;100229.16;5037851;28;45449;-70
2022/10/31 02:13:07;;;;;;;;;20.00;19.00;;;;;15.15;79.17;100226.53;5038268;28;45772;-71
2022/10/31 02:15:34;;;;;;;;;21.50;20.75;;;;;15.14;79.38;100230.94;5035745;28;46487;-71
2022/10/31 02:18:00;;;;;;;;;21.25;19.25;;;;;15.19;79.71;100239.72;5037821;28;45546;-70
2022/10/31 02:20:40;;;;;;;;;18.25;18.25;;;;;15.08;79.11;100237.03;5036073;28;45707;-70
2022/10/31 02:23:24;;;;;;;;;22.75;22.25;;;;;15.21;79.28;100243.25;5038075;28;45463;-70
2022/10/31 02:25:52;;;;;;;;;21.75;18.50;;;;;15.20;79.69;100235.34;5036666;28;45479;-70
2022/10/31 02:28:55;;;;;;;;;23.00;21.25;;;;;15.15;80.10;100227.41;5036033;28;45373;-69
2022/10/31 02:31:55;;;;;;;;;19.75;19.50;;;;;15.15;79.72;100230.06;5035924;28;45343;-70
2022/10/31 02:34:37;;;;;;;;;25.00;21.75;;;;;15.18;79.83;100222.19;5035851;28;45665;-70
2022/10/31 02:37:18;;;;;;;;;23.25;22.50;;;;;15.06;79.86;100194.06;5036786;28;45422;-70
2022/10/31 02:40:02;;;;;;;;;25.75;22.50;;;;;14.93;80.23;100180.81;5037642;28;45281;-70
2022/10/31 02:42:50;;;;;;;;;25.50;22.75;;;;;15.01;79.84;100194.91;5037613;28;45525;-70
2022/10/31 02:45:39;;;;;;;;;21.00;19.00;;;;;15.03;79.52;100185.25;5037922;28;45349;-70
2022/10/31 02:48:12;;;;;;;;;25.00;23.00;;;;;15.08;79.68;100178.25;5035986;28;46269;-70
2022/10/31 02:50:43;;;;;;;;;23.00;20.00;;;;;15.01;79.54;100164.19;5037557;28;45536;-70
2022/10/31 02:53:08;;;;;;;;;24.25;22.50;;;;;15.02;79.71;100168.59;5037831;28;45335;-70
2022/10/31 02:55:34;;;;;;;;;21.25;20.00;;;;;15.10;79.98;100176.53;5037729;28;45378;-71
2022/10/31 02:58:11;;;;;;;;;27.75;22.50;;;;;15.10;79.80;100169.53;5036934;28;45843;-71
2022/10/31 03:00:56;;;;;;;;;23.00;21.75;;;;;15.01;79.82;100155.44;5037366;28;45418;-71
2022/10/31 03:03:41;;;;;;;;;25.00;23.00;;;;;15.11;79.80;100168.63;5037132;28;45327;-71
2022/10/31 03:06:07;;;;;;;;;29.25;25.75;;;;;15.09;80.50;100169.50;5037315;28;45631;-70
2022/10/31 03:08:41;;;;;;;;;27.00;25.00;;;;;15.03;80.55;100170.34;5035676;28;46884;-70
2022/10/31 03:11:08;;;;;;;;;24.50;22.50;;;;;15.01;80.50;100168.59;5037137;28;45411;-70
2022/10/31 03:14:20;;;;;;;;;26.00;25.25;;;;;15.06;81.08;100172.09;5037085;28;45708;-70
2022/10/31 03:16:49;;;;;;;;;27.75;27.50;;;;;14.97;81.08;100165.06;5034218;28;45520;-70
2022/10/31 03:19:31;;;;;;;;;29.00;25.00;;;;;15.09;80.94;100174.78;5036912;28;46158;-70
2022/10/31 03:22:02;;;;;;;;;22.00;21.50;;;;;15.10;80.36;100174.78;5037025;28;45600;-70
2022/10/31 03:24:32;;;;;;;;;24.00;23.00;;;;;15.18;80.38;100177.47;5036837;28;45464;-70
2022/10/31 03:27:01;;;;;;;;;26.25;24.75;;;;;15.10;79.27;100160.75;5036578;28;45401;-70
2022/10/31 03:29:31;;;;;;;;;25.00;23.00;;;;;15.26;78.99;100173.13;5036072;28;46149;-70
2022/10/31 03:32:11;;;;;;;;;27.00;25.75;;;;;15.18;79.35;100164.31;5034997;28;45494;-71
2022/10/31 03:34:41;;;;;;;;;28.75;27.50;;;;;15.22;80.03;100160.81;5036521;28;45409;-70
2022/10/31 03:37:10;;;;;;;;;28.25;25.75;;;;;15.28;80.20;100175.75;5036992;28;45366;-71
2022/10/31 03:39:40;;;;;;;;;30.50;26.00;;;;;15.22;79.75;100165.16;5035044;28;46454;-70
2022/10/31 03:42:14;;;;;;;;;24.75;24.75;;;;;15.17;80.09;100154.63;5036896;28;45472;-71
2022/10/31 03:44:44;;;;;;;;;27.00;25.50;;;;;15.16;80.06;100160.78;5036608;28;45307;-71
2022/10/31 03:47:10;;;;;;;;;28.75;25.00;;;;;15.22;79.97;100163.44;5035679;28;45447;-71
2022/10/31 03:49:36;;;;;;;;;29.25;26.50;;;;;15.19;80.29;100152.88;5039836;28;45425;-71
2022/10/31 03:52:20;;;;;;;;;25.00;24.00;;;;;15.26;79.97;100144.16;5040366;28;45239;-71
2022/10/31 03:55:00;;;;;;;;;23.50;23.00;;;;;15.26;79.69;100141.53;5040529;28;45292;-70
2022/10/31 03:57:34;;;;;;;;;23.50;21.75;;;;;14.78;79.45;100058.00;5040246;28;45354;-71
2022/10/31 04:00:12;;;;;;;;;26.00;24.00;;;;;15.25;79.30;100134.50;5040056;28;46032;-71
2022/10/31 04:02:43;;;;;;;;;30.00;25.75;;;;;15.13;79.74;100105.50;5039922;28;45448;-71
2022/10/31 04:05:11;;;;;;;;;20.50;20.25;;;;;15.18;79.50;100122.22;5040115;28;45369;-71
2022/10/31 04:07:44;;;;;;;;;28.75;23.00;;;;;15.35;79.27;100131.91;5038354;28;45458;-71
2022/10/31 04:10:13;;;;;;;;;24.00;21.50;;;;;15.31;79.21;100124.00;5039595;28;46200;-71
2022/10/31 04:12:41;;;;;;;;;21.25;21.25;;;;;15.31;79.15;100113.47;5039969;28;45373;-71
2022/10/31 04:15:09;;;;;;;;;27.50;25.50;;;;;15.44;78.85;100130.19;5039941;28;45422;-71
2022/10/31 04:17:40;;;;;;;;;22.75;21.25;;;;;15.47;78.51;100129.31;5039948;28;45288;-71
2022/10/31 04:20:06;;;;;;;;;23.25;22.75;;;;;15.49;78.25;100117.91;5039771;28;46276;-71
2022/10/31 04:22:32;;;;;;;;;22.00;21.00;;;;;15.54;78.07;100131.13;5039873;28;45360;-71
2022/10/31 04:24:57;;;;;;;;;26.00;24.00;;;;;15.52;77.94;100127.59;5039822;28;45241;-72
2022/10/31 04:27:23;;;;;;;;;25.00;23.00;;;;;15.63;78.61;100119.72;5038835;28;45492;-71
2022/10/31 04:29:49;;;;;;;;;18.75;18.00;;;;;15.52;78.07;100106.53;5038842;28;46038;-71
2022/10/31 04:32:14;;;;;;;;;20.75;19.75;;;;;15.64;77.78;100130.25;5039696;28;45402;-71
2022/10/31 04:34:40;;;;;;;;;21.75;20.75;;;;;15.57;78.00;100109.16;5039702;28;45404;-71
2022/10/31 04:37:05;;;;;;;;;18.50;17.50;;;;;15.21;77.92;100042.41;5039693;28;45458;-71
2022/10/31 04:39:31;;;;;;;;;23.75;22.00;;;;;15.54;77.36;100096.88;5039421;28;46591;-70
2022/10/31 04:41:56;;;;;;;;;16.00;14.75;;;;;15.71;77.63;100112.72;5039543;28;45347;-71
2022/10/31 04:44:21;;;;;;;;;21.25;18.75;;;;;15.66;77.15;100111.84;5038287;28;45411;-71
2022/10/31 04:46:47;;;;;;;;;21.25;20.25;;;;;15.66;77.18;100099.53;5039942;28;45556;-71
2022/10/31 04:49:13;;;;;;;;;22.50;20.25;;;;;15.66;77.47;100117.97;5037948;28;46648;-71
2022/10/31 04:51:38;;;;;;;;;24.75;21.50;;;;;15.69;77.37;100125.88;5039027;28;45556;-71
2022/10/31 04:54:04;;;;;;;;;23.50;22.00;;;;;15.64;77.63;100100.44;5038056;28;45303;-70
2022/10/31 04:56:29;;;;;;;;;19.25;18.00;;;;;15.52;77.40;100080.22;5039481;28;45513;-70
2022/10/31 04:58:55;;;;;;;;;20.00;19.00;;;;;15.57;76.78;100083.72;5039069;28;46024;-70
2022/10/31 05:01:21;;;;;;;;;19.25;19.25;;;;;15.62;77.50;100083.75;5037785;28;45518;-70
2022/10/31 05:03:46;;;;;;;;;17.00;14.75;;;;;15.55;77.44;100074.06;5037712;28;45611;-69
2022/10/31 05:06:12;;;;;;;;;18.50;18.50;;;;;15.58;77.97;100081.94;5037669;28;45597;-70
2022/10/31 05:08:37;;;;;;;;;18.50;17.50;;;;;15.63;77.68;100088.13;5037097;28;46204;-69
2022/10/31 05:11:04;;;;;;;;;17.50;16.25;;;;;15.68;77.93;100095.16;5037400;28;45503;-69
2022/10/31 05:13:30;;;;;;;;;19.75;18.00;;;;;15.62;77.89;100076.72;5037263;28;45430;-70
2022/10/31 05:15:56;;;;;;;;;21.50;20.25;;;;;15.58;77.29;100063.53;5037505;28;45501;-70
2022/10/31 05:18:22;;;;;;;;;19.00;18.00;;;;;15.70;77.73;100082.00;5035686;28;46647;-70
2022/10/31 05:20:48;;;;;;;;;18.25;17.00;;;;;15.68;77.85;100079.34;5037396;28;45400;-70
2022/10/31 05:23:14;;;;;;;;;22.25;19.75;;;;;15.60;77.49;100073.19;5037168;28;45500;-70
2022/10/31 05:25:40;;;;;;;;;21.25;20.50;;;;;15.66;77.53;100089.00;5037453;28;45324;-70
2022/10/31 05:28:06;;;;;;;;;22.25;20.50;;;;;15.65;77.49;100081.09;5037047;28;45604;-70
2022/10/31 05:30:33;;;;;;;;;24.50;21.75;;;;;15.63;77.21;100089.00;5037043;28;45513;-71
2022/10/31 05:32:59;;;;;;;;;18.75;17.25;;;;;15.50;77.68;100055.63;5037070;28;45516;-71
2022/10/31 05:35:30;;;;;;;;;20.25;19.75;;;;;15.55;77.89;100074.94;5037132;28;45532;-70
2022/10/31 05:37:57;;;;;;;;;19.25;17.25;;;;;15.51;77.47;100063.50;5033105;28;45929;-70
2022/10/31 05:40:24;;;;;;;;;22.00;20.00;;;;;15.36;77.82;100050.34;5036919;28;45479;-70
2022/10/31 05:42:53;;;;;;;;;21.00;20.00;;;;;15.38;77.80;100052.94;5037066;28;45321;-69
2022/10/31 05:45:20;;;;;;;;;22.25;20.00;;;;;15.42;77.92;100059.97;5035988;28;45408;-68
2022/10/31 05:47:54;;;;;;;;;20.75;18.25;;;;;15.27;78.00;100040.66;5036828;28;46511;-67
2022/10/31 05:50:20;;;;;;;;;23.75;21.50;;;;;15.24;78.48;100045.03;5035143;28;45603;-69
2022/10/31 05:52:45;;;;;;;;;19.75;18.50;;;;;15.30;78.45;100055.59;5036718;28;45438;-71
2022/10/31 05:55:11;;;;;;;;;19.25;18.00;;;;;15.20;78.09;100028.38;5035677;28;45395;-70
2022/10/31 05:57:36;;;;;;;;;20.50;18.00;;;;;15.29;77.70;100045.91;5036377;28;46395;-69
2022/10/31 06:00:03;;;;;;;;;14.25;14.25;;;;;15.28;77.60;100046.81;5035379;28;45465;-70
2022/10/31 06:02:34;;;;;;;;;16.50;15.75;;;;;15.27;77.75;100043.28;5036624;28;45402;-69
2022/10/31 06:05:00;;;;;;;;;18.75;18.00;;;;;15.32;76.47;100040.69;5036669;28;45333;-70
2022/10/31 06:07:26;;;;;;;;;21.00;17.75;;;;;15.36;77.27;100052.97;5036550;28;46353;-71
2022/10/31 06:09:52;;;;;;;;;17.00;16.00;;;;;15.27;76.90;100047.66;5036272;28;45502;-71
2022/10/31 06:12:17;;;;;;;;;17.00;15.75;;;;;15.30;76.83;100066.13;5051113;28;45495;-70
2022/10/31 06:14:43;;;;;;;;;19.00;17.00;;;;;15.27;77.09;100061.69;5036621;28;45558;-70
2022/10/31 06:17:09;;;;;;;;;20.50;20.00;;;;;15.31;76.76;100076.63;5051509;28;46623;-70
2022/10/31 06:19:34;;;;;;;;;18.00;16.75;;;;;15.29;76.70;100072.25;5036248;28;45506;-70
2022/10/31 06:21:59;;;;;;;;;14.00;13.00;;;;;15.27;76.40;100069.59;5036325;28;45282;-70
2022/10/31 06:24:25;;;;;;;;;18.00;16.00;;;;;15.31;75.62;100062.59;5036537;28;45269;-69
2022/10/31 06:26:51;;;;;;;;;17.25;15.25;;;;;15.41;75.76;100071.41;5035185;28;45319;-70
2022/10/31 06:29:16;;;;;;;;;15.75;14.00;;;;;15.39;75.53;100063.50;5036563;28;45512;-70
2022/10/31 06:31:42;;;;;;;;;15.50;13.50;;;;;15.42;75.13;100060.88;5051730;28;45369;-70
2022/10/31 06:34:07;;;;;;;;;18.50;16.00;;;;;15.46;75.08;100062.63;5036288;28;45489;-70
2022/10/31 06:36:33;;;;;;;;;10.75;8.50;;;;;15.47;74.94;100068.78;5033212;28;45651;-70
2022/10/31 06:39:00;;;;;;;;;14.00;13.75;;;;;15.49;75.22;100067.03;5034434;28;45519;-70
2022/10/31 06:41:25;;;;;;;;;17.25;16.00;;;;;15.53;75.38;100068.78;5035921;28;45516;-70
2022/10/31 06:43:51;;;;;;;;;18.00;17.50;;;;;15.48;74.82;100053.00;5035802;28;45814;-70
2022/10/31 06:46:17;;;;;;;;;21.25;19.00;;;;;15.59;74.76;100057.41;5034510;28;46311;-69
2022/10/31 06:48:42;;;;;;;;;18.25;16.00;;;;;15.66;75.33;100073.22;5035819;28;45554;-70
2022/10/31 06:51:08;;;;;;;;;17.75;17.00;;;;;15.68;75.69;100073.22;5035917;28;45298;-69
2022/10/31 06:53:34;;;;;;;;;15.75;15.75;;;;;15.78;74.52;100068.88;5057546;28;45584;-69
2022/10/31 06:55:59;;;;;;;;;14.00;13.00;;;;;15.79;74.01;100060.09;5035571;28;45519;-70
2022/10/31 06:58:25;;;;;;;;;17.00;14.50;;;;;15.84;73.93;100064.50;5035857;28;45391;-70
2022/10/31 07:00:50;;;;;;;;;16.75;16.00;;;;;15.94;73.89;100061.88;5037295;28;45342;-70
2022/10/31 07:03:16;;;;;;;;;17.50;15.75;;;;;16.00;74.03;100064.50;5037527;28;45871;-70
2022/10/31 07:05:42;;;;;;;;;27.50;24.00;;;;;16.11;73.54;100075.91;5037056;28;46268;-70
2022/10/31 07:08:11;;;;;;;;;20.25;19.25;;;;;16.08;73.80;100055.72;5037260;28;45410;-70
2022/10/31 07:10:38;;;;;;;;;17.00;16.75;;;;;16.25;73.55;100076.78;5036024;28;45636;-70
2022/10/31 07:13:06;;;;;;;;;17.00;15.00;;;;;16.34;72.58;100064.47;5037338;28;45449;-70
2022/10/31 07:15:39;;;;;;;;;12.50;12.25;;;;;16.51;72.27;100065.31;5036611;28;45579;-70
2022/10/31 07:18:06;;;;;;;;;14.25;14.00;;;;;16.45;72.51;100029.31;5035894;28;45571;-69
2022/10/31 07:20:33;;;;;;;;;15.75;13.25;;;;;16.61;72.15;100027.50;5037276;28;45381;-70
2022/10/31 07:22:58;;;;;;;;;15.50;13.50;;;;;16.78;70.96;100035.34;5035639;28;45448;-73
2022/10/31 07:25:24;;;;;;;;;14.00;12.00;;;;;16.89;70.87;100044.16;5036825;28;46132;-70
2022/10/31 07:27:50;;;;;;;;;14.00;13.50;;;;;16.40;70.05;99938.81;5035926;28;45550;-70
2022/10/31 07:30:19;;;;;;;;;16.50;14.75;;;;;17.08;70.79;100036.16;5037158;28;45247;-70
2022/10/31 07:32:47;;;;;;;;;10.00;10.00;;;;;17.24;69.47;100029.91;5035103;28;45445;-77
2022/10/31 07:35:16;;;;;;;;;11.67;11.67;;;;;17.41;68.82;100018.38;5035586;28;45363;-72
2022/10/31 07:37:41;;;;;;;;;13.75;12.00;;;;;17.45;68.09;99988.44;5035517;28;46400;-70
2022/10/31 07:40:08;;;;;;;;;14.00;13.50;;;;;17.69;67.80;99995.28;5036427;28;45492;-70
2022/10/31 07:42:41;;;;;;;;;10.67;10.67;;;;;17.85;66.51;99993.44;5034915;28;45502;-70
2022/10/31 07:45:10;;;;;;;;;15.33;13.67;;;;;18.07;64.87;99978.25;5036084;28;45448;-70
2022/10/31 07:47:44;;;;;;;;;13.33;12.33;;;;;18.30;64.07;99980.63;5036232;28;45574;-70
2022/10/31 07:50:12;;;;;;;;;0.00;0.00;;;;;18.55;63.61;99988.31;5036275;28;45496;-69
2022/10/31 07:52:41;;;;;;;;;14.00;13.00;;;;;18.71;61.96;99975.78;5035625;28;45504;-69
2022/10/31 07:55:08;;;;;;;;;14.00;13.33;;;;;18.94;61.81;99986.97;5051416;28;46624;-70
2022/10/31 07:57:34;;;;;;;;;14.00;13.33;;;;;18.97;61.78;99972.81;5068248;28;45790;-69
2022/10/31 07:59:59;;;;;;;;;12.67;12.67;;;;;19.12;60.48;99979.66;5035713;28;45373;-70
2022/10/31 08:02:25;;;;;;;;;12.67;12.33;;;;;19.21;60.18;99974.25;5051244;28;45494;-70
2022/10/31 08:04:51;;;;;;;;;14.33;14.33;;;;;19.26;59.41;99970.63;5051396;28;47556;-75
2022/10/31 08:07:17;;;;;;;;;12.33;12.33;;;;;19.48;59.44;99991.50;5034701;28;45920;-69
2022/10/31 08:09:42;;;;;;;;;12.00;12.00;;;;;19.52;60.18;99982.59;5034822;28;45599;-70
2022/10/31 08:12:08;;;;;;;;;12.67;12.00;;;;;19.50;60.44;99980.84;5035526;28;45534;-69
2022/10/31 08:14:33;;;;;;;;;16.67;14.00;;;;;19.57;59.58;99998.41;5034954;28;45560;-68
2022/10/31 08:16:59;;;;;;;;;15.33;13.33;;;;;19.44;59.66;99973.91;5058770;28;45540;-70
2022/10/31 08:19:24;;;;;;;;;14.67;14.00;;;;;19.53;58.95;99994.06;5034013;28;45558;-70
2022/10/31 08:21:51;;;;;;;;;15.00;14.33;;;;;19.64;60.28;100022.16;5031858;28;45565;-70
2022/10/31 08:24:17;;;;;;;;;18.00;17.00;;;;;19.55;60.42;100001.09;5034655;28;46443;-72
2022/10/31 08:26:42;;;;;;;;;14.00;13.00;;;;;19.51;61.27;100002.03;5034759;28;45223;-70
2022/10/31 08:29:08;;;;;;;;;14.33;12.67;;;;;19.41;59.97;99997.78;5033798;28;45690;-69
2022/10/31 08:31:34;;;;;;;;;14.67;14.67;;;;;19.44;60.72;100011.00;5035330;28;45729;-70
2022/10/31 08:33:59;;;;;;;;;13.00;13.00;;;;;19.22;59.39;100013.09;5033495;28;46770;-71
2022/10/31 08:36:25;;;;;;;;;13.67;13.00;;;;;19.34;60.47;100009.34;5036542;28;45438;-69
2022/10/31 08:38:50;;;;;;;;;13.00;10.33;;;;;19.41;59.55;100018.97;5038902;28;45605;-70
2022/10/31 08:41:16;;;;;;;;;17.00;15.33;;;;;19.42;59.00;100011.00;5037284;28;45470;-69
2022/10/31 08:43:41;;;;;;;;;15.00;14.33;;;;;19.49;59.82;100011.78;5038113;28;46528;-68
2022/10/31 08:46:07;;;;;;;;;15.67;13.67;;;;;19.47;60.66;99995.91;5037433;28;45292;-69
2022/10/31 08:48:32;;;;;;;;;11.67;11.67;;;;;19.62;59.74;100021.31;5038171;28;45355;-69
2022/10/31 08:50:59;;;;;;;;;10.33;10.33;;;;;19.61;59.05;100016.88;5036548;28;45597;-68
2022/10/31 08:53:26;;;;;;;;;13.00;13.00;;;;;19.65;58.43;99994.75;5034939;28;46544;-69
2022/10/31 08:55:55;;;;;;;;;15.67;14.00;;;;;19.70;58.77;99997.34;5034438;28;45386;-69
2022/10/31 08:58:21;;;;;;;;;17.00;16.33;;;;;19.66;59.01;99985.91;5037100;28;45567;-72
2022/10/31 09:00:49;;;;;;;;;22.50;21.50;;;;;19.73;59.36;99993.78;5038429;28;45498;-74
2022/10/31 09:03:19;;;;;;;;;15.00;15.00;;;;;19.71;61.28;99984.94;5037382;28;46113;-69
2022/10/31 09:05:45;;;;;;;;;12.33;12.33;;;;;19.60;61.01;99990.44;5035012;28;45499;-69
2022/10/31 09:08:12;;;;;;;;;14.00;13.00;;;;;19.59;60.65;99991.31;5037674;28;45354;-69
2022/10/31 09:10:38;;;;;;;;;14.67;13.67;;;;;19.60;60.65;99995.75;5038465;28;45485;-70
2022/10/31 09:13:09;;;;;;;;;16.00;14.00;;;;;19.65;60.41;100010.63;5037033;28;46311;-70
2022/10/31 09:15:38;;;;;;;;;14.33;13.67;;;;;19.64;60.60;100014.19;5053710;28;45625;-70
2022/10/31 09:18:07;;;;;;;;;17.00;16.50;;;;;19.56;61.01;100016.09;5037781;28;45437;-70
2022/10/31 09:20:35;;;;;;;;;23.25;23.00;;;;;19.56;61.89;100012.59;5037738;28;45574;-70
2022/10/31 09:23:09;;;;;;;;;21.00;18.25;;;;;19.45;61.76;99994.19;5052696;28;47038;-72
2022/10/31 09:25:35;;;;;;;;;13.33;13.00;;;;;19.53;61.47;100010.84;5037250;28;45689;-69
2022/10/31 09:28:03;;;;;;;;;17.50;17.00;;;;;19.57;60.42;99998.41;5035487;28;45461;-70
2022/10/31 09:30:30;;;;;;;;;19.33;16.33;;;;;19.62;60.06;99980.69;5053215;28;45466;-72
2022/10/31 09:33:00;;;;;;;;;12.33;11.33;;;;;19.55;58.03;99961.34;5037666;28;46214;-70
2022/10/31 09:35:26;;;;;;;;;11.33;11.00;;;;;19.73;57.26;99965.50;5034879;28;45441;-73
2022/10/31 09:38:01;;;;;;;;;7.67;6.67;;;;;19.88;56.45;99961.72;5037883;28;45389;-69
2022/10/31 09:40:34;;;;;;;;;13.33;11.00;;;;;19.85;55.94;99956.47;5038308;28;45468;-69
2022/10/31 09:43:12;;;;;;;;;14.67;12.33;;;;;20.01;55.56;99962.38;5038175;28;45499;-70
2022/10/31 09:46:15;;;;;;;;;14.33;11.67;;;;;20.14;54.88;99966.56;5036557;28;45425;-70
2022/10/31 09:49:03;;;;;;;;;11.00;10.67;;;;;20.11;55.30;99960.44;5036296;28;45246;-71
2022/10/31 09:51:34;;;;;;;;;13.33;12.67;;;;;20.14;55.70;99971.00;5036869;28;45368;-70
2022/10/31 09:54:36;;;;;;;;;12.00;10.33;;;;;20.27;56.25;100001.66;5037543;28;45583;-71
2022/10/31 09:57:03;;;;;;;;;11.00;11.00;;;;;20.30;55.66;99992.81;4984653;28;45716;-71
2022/10/31 09:59:35;;;;;;;;;11.33;11.33;;;;;20.24;54.96;99960.16;5037316;28;45419;-71
2022/10/31 10:02:20;;;;;;;;;8.67;8.67;;;;;20.35;54.57;99961.72;5036629;28;45432;-71
2022/10/31 10:04:58;;;;;;;;;9.67;9.67;;;;;20.48;54.78;99971.22;5037773;28;45498;-70
2022/10/31 10:07:38;;;;;;;;;12.00;11.00;;;;;20.54;54.14;99980.84;5036080;28;45385;-71
2022/10/31 10:10:49;;;;;;;;;10.00;10.00;;;;;20.52;54.15;99964.94;5036812;28;45270;-71
2022/10/31 10:13:30;;;;;;;;;10.33;9.67;;;;;20.50;53.82;99937.56;5016655;28;45238;-71
2022/10/31 10:16:14;;;;;;;;;11.33;10.33;;;;;20.70;53.77;99965.50;5035436;28;47720;-70
2022/10/31 10:18:49;;;;;;;;;10.67;10.33;;;;;20.66;53.40;99936.38;5035496;28;45425;-70
2022/10/31 10:21:31;;;;;;;;;11.33;11.33;;;;;20.80;53.00;99937.84;5035536;28;45424;-70
2022/10/31 10:24:22;;;;;;;;;10.00;10.00;;;;;20.82;52.90;99936.91;5036757;28;45309;-69
2022/10/31 10:26:54;;;;;;;;;10.33;10.00;;;;;20.89;52.96;99928.81;5035582;28;45290;-70
2022/10/31 10:29:47;;;;;;;;;10.67;9.33;;;;;20.90;53.19;99933.22;5035838;28;45455;-70
2022/10/31 10:32:23;;;;;;;;;11.33;9.33;;;;;20.83;53.22;99920.09;5035998;28;45508;-70
2022/10/31 10:35:02;;;;;;;;;11.33;9.00;;;;;20.94;52.38;99918.97;5036696;28;45488;-69
2022/10/31 10:37:39;;;;;;;;;11.00;10.67;;;;;20.99;51.90;99911.75;5036484;28;46061;-70
2022/10/31 10:40:14;;;;;;;;;10.67;9.33;;;;;21.00;52.18;99913.50;5035994;28;45547;-70
2022/10/31 10:48:22;;;;;;;;;10.00;10.00;;;;;21.11;51.92;99903.53;5035181;28;45803;-70
2022/10/31 10:50:52;;;;;;;;;9.00;8.33;;;;;21.14;52.05;99886.63;5035804;28;45376;-70
2022/10/31 10:54:02;;;;;;;;;8.33;8.33;;;;;21.22;51.66;99896.16;5034528;28;45427;-69
2022/10/31 10:56:41;;;;;;;;;12.00;10.00;;;;;21.23;51.90;99881.13;5037038;28;45491;-70
2022/10/31 10:59:11;;;;;;;;;12.67;10.67;;;;;21.16;51.80;99869.75;5033794;28;45556;-71
2022/10/31 11:01:37;;;;;;;;;9.33;8.33;;;;;21.23;51.90;99884.63;5036029;28;45189;-70
2022/10/31 11:04:04;;;;;;;;;9.67;9.00;;;;;21.25;51.45;99884.59;5036390;28;45327;-70
2022/10/31 11:06:29;;;;;;;;;10.67;10.00;;;;;21.33;51.04;99885.28;5035669;28;45380;-70
2022/10/31 11:08:55;;;;;;;;;11.67;9.33;;;;;21.37;51.42;99867.50;5035703;28;45641;-70
2022/10/31 11:11:27;;;;;;;;;13.67;12.33;;;;;21.37;51.12;99864.84;5034963;28;45566;-70
2022/10/31 11:14:05;;;;;;;;;12.00;9.67;;;;;21.42;51.98;99862.91;5036652;28;46142;-70
2022/10/31 11:16:42;;;;;;;;;10.00;9.00;;;;;21.33;51.29;99833.91;5036891;28;45343;-71
2022/10/31 11:19:16;;;;;;;;;7.00;6.67;;;;;21.51;50.79;99844.13;5035781;28;46582;-70
2022/10/31 11:21:42;;;;;;;;;10.00;9.67;;;;;21.49;50.55;99823.78;5036134;28;45308;-71
2022/10/31 11:24:10;;;;;;;;;12.00;9.00;;;;;21.59;50.04;99834.16;5035170;28;45321;-72
2022/10/31 11:26:41;;;;;;;;;9.00;9.00;;;;;21.60;50.32;99833.22;5067899;28;45366;-73
2022/10/31 11:29:17;;;;;;;;;9.00;9.00;;;;;21.66;50.03;99837.50;5047832;28;47580;-69
2022/10/31 11:31:45;;;;;;;;;10.67;9.00;;;;;21.73;49.77;99832.91;5034495;28;45549;-69